Thursday, March 21, 2019, 4:43 PM EDT
Back to Local

KHIE, Mt Washington Regional Airport

Location: Jefferson, NH, United States Lat: 44.367
Local Time: 4:43 PM EDT (20:43 GMT) Lon: -71.55
Time Zone: US/Eastern Elev: 1072 ft

Show me the last for .
Show Decoded

2019-03-21 15:52 METAR KHIE 211952Z AUTO 16008KT 10SM OVC049 09/M05 A2997 RMK AO2 SLP160
                 T00891050 =
2019-03-21 14:52 METAR KHIE 211852Z AUTO 20008KT 10SM FEW055 BKN100 08/M04 A3000 RMK AO2 SLP170
                 T00831039 =
2019-03-21 13:52 METAR KHIE 211752Z AUTO 21008KT 10SM OVC090 08/M03 A3003 RMK AO2 SLP180
                 T00781028 10078 21022 58019 =
2019-03-21 12:52 METAR KHIE 211652Z AUTO 21006KT 10SM BKN048 OVC080 07/M03 A3006 RMK AO2 SLP190
                 T00721028 =
2019-03-21 11:52 METAR KHIE 211552Z AUTO 20009G16KT 10SM SCT047 OVC090 07/M03 A3007 RMK AO2
                 SLP195 T00721033 =
2019-03-21 10:52 METAR KHIE 211452Z AUTO 19005KT 10SM CLR 07/M04 A3008 RMK AO2 SLP200 T00721044
                 58017 =
2019-03-21 09:52 METAR KHIE 211352Z AUTO 00000KT 10SM SCT095 BKN120 03/M04 A3011 RMK AO2 SLP210
                 T00281044 =
2019-03-21 08:52 METAR KHIE 211252Z AUTO 00000KT 10SM OVC100 01/M04 A3013 RMK AO2 SLP219
                 T00061044 =
2019-03-21 07:52 METAR KHIE 211152Z AUTO 00000KT 10SM OVC090 M02/M06 A3014 RMK AO2 SLP220
                 T10221056 11022 21044 58005 =
2019-03-21 06:52 METAR KHIE 211052Z AUTO 00000KT 10SM OVC100 M03/M06 A3015 RMK AO2 SLP222
                 T10281056 =
2019-03-21 05:52 METAR KHIE 210952Z AUTO 00000KT 10SM SCT120 M03/M06 A3015 RMK AO2 SLP223
                 T10331061 =
2019-03-21 04:52 METAR KHIE 210852Z AUTO 00000KT 10SM CLR M03/M06 A3015 RMK AO2 SLP223 T10331056
                 56010 =
2019-03-21 03:52 METAR KHIE 210752Z AUTO 00000KT 10SM BKN120 M03/M06 A3015 RMK AO2 SLP223
                 T10331061 =
2019-03-21 02:52 METAR KHIE 210652Z AUTO 00000KT 10SM CLR M04/M07 A3017 RMK AO2 SLP228 T10391067
                 =
2019-03-21 01:52 METAR KHIE 210552Z AUTO 00000KT 10SM CLR M04/M07 A3018 RMK AO2 SLP235 T10441067
                 10006 21044 55000 =
2019-03-21 00:52 METAR KHIE 210452Z AUTO 00000KT 10SM CLR M04/M07 A3018 RMK AO2 SLP233 T10441067
                 400781150 =
2019-03-20 23:52 METAR KHIE 210352Z AUTO 00000KT 10SM CLR M04/M07 A3018 RMK AO2 SLP234 T10391067
                 =
2019-03-20 22:52 METAR KHIE 210252Z AUTO 00000KT 10SM CLR M03/M06 A3019 RMK AO2 SLP236 T10281061
                 50003 =
2019-03-20 21:52 METAR KHIE 210152Z AUTO 00000KT 10SM CLR M02/M06 A3019 RMK AO2 SLP239 T10171061
                 =
2019-03-20 20:52 METAR KHIE 210052Z AUTO 00000KT 10SM CLR M01/M06 A3018 RMK AO2 SLP239 T10061061
                 =
2019-03-20 19:52 METAR KHIE 202352Z AUTO 00000KT 10SM CLR 01/M06 A3018 RMK AO2 SLP238 T00061061
                 10078 20006 56005 =
2019-03-20 18:52 METAR KHIE 202252Z AUTO 00000KT 10SM CLR 04/M08 A3018 RMK AO2 SLP239 T00391078 =
2019-03-20 17:52 METAR KHIE 202152Z AUTO VRB03KT 10SM CLR 08/M08 A3018 RMK AO2 SLP238 T00781083 =
2019-03-20 16:52 METAR KHIE 202052Z AUTO 26005KT 10SM CLR 07/M08 A3019 RMK AO2 SLP240 T00721083
                 56016 =

Support USWX by starting your Amazon purchase here.